Strona główna
METAR-TAF:

METAR-TAF

Lotnisko :

Tongatapu, Tonga

Port lotniczy Fuaʻamotu

Szerokość geograficzna: 21-14S, Długość geograficzna: 175-09W, wysokość: 38 m

Aktualna obserwacja pogody

Raport powstał 6 minut temu, godzina 19:00 UTC
Cisza
Temperatura 24°C
Wilgotność 78%
Ciśnienie 1014 hPa
Widzialność 10 km lub więcej
Rozproszone chmury na wysokości 1700 ft
Przerywane chmury na wysokości 4000 ft

METAR: NFTF 261900Z 00000KT 9999 SCT017 BKN040 24/20 Q1014

czas: 08:06 (19:06 UTC)

Prognoza

Raport powstał 1 godzina i 54 minut temu, godzina 17:12 UTC
Prognoza ważna od 26 godzina 18 UTC do 27 godzina 18 UTC
Wiatr 8 kt od wschód
Widzialność 10 km lub więcej
Mało chmury na wysokości 1800 ft

TAF: NFTF 261712Z 2618/2718 10008KT 9999 FEW018

Obserwacja i prognoza pogody dla ponad 4000 lotnisk (raport METAR i TAF).

Dostępne stacje oznaczono żółtymi i czerwonymi punktami na mapie.

Najedź kursorem aby zobaczyć nazwę stacji.

Kliknij aby zobaczyć obserwacje i prognozy pogody.

Aby zmienić mapę: kliknij na zielony przycisk z czarnym krzyżykiem, aby powiększyć; na zielony przycisk z myślnikiem, aby pomniejszyć; na zielone strzałki, aby przejść do map sąsiednich.


METAR-TAF: